Aviation Digital Data Service (ADDS)

Output produced by METARs form (0243 UTC 18 June 2019)
found at http://www.aviationweather.gov/metar/data/
 
Forecast for: LERS (REUS (CIV/MIL) , ES)
Text: TAF LERS 180200Z 1803/1903 VRB03KT 9999 FEW030 TX26/1812Z TN16/1805Z
Forecast period: 0300 to 0800 UTC 18 June 2019
Forecast type: FROM: standard forecast or significant change
Winds: variable direction winds at 3 MPH (3 knots; 1.5 m/s)
Visibility: 6 or more miles 10+ km)
Ceiling: at least 12,000 feet AGL
Clouds: few clouds at 3000 feet AGL
Weather: no significant weather forecast for this period
Text: BECMG 1808/1810 18010KT
Forecast period: 0800 to 2100 UTC 18 June 2019
Forecast type: BECOMING: Conditions expected to become as follows by 1000 UTC 18 June 2019
Winds: from the S (180 degrees) at 12 MPH (10 knots; 5.1 m/s)
Visibility: 6 or more miles 10+ km)
Ceiling: at least 12,000 feet AGL
Clouds: few clouds at 3000 feet AGL
Weather: no significant weather forecast for this period
Text: BECMG 1821/1823 VRB03KT
Forecast period: 2100 UTC 18 June 2019 to 0300 UTC 19 June 2019
Forecast type: BECOMING: Conditions expected to become as follows by 2300 UTC 18 June 2019
Winds: variable direction winds at 3 MPH (3 knots; 1.5 m/s)
Visibility: 6 or more miles 10+ km)
Ceiling: at least 12,000 feet AGL
Clouds: few clouds at 3000 feet AGL
Weather: no significant weather forecast for this period